createdAt,value
2023-03-29T00:01:36.542Z,4.57
2023-03-29T00:04:04.397Z,5.97
2023-03-29T00:06:31.117Z,6.53
2023-03-29T00:08:57.435Z,5.57
2023-03-29T00:11:23.817Z,5.72
2023-03-29T00:13:50.220Z,5.78
2023-03-29T00:16:16.687Z,5.63
2023-03-29T00:18:43.954Z,4.15
2023-03-29T00:21:10.706Z,4.13
2023-03-29T00:23:37.172Z,4.18
2023-03-29T00:26:05.927Z,4.82
2023-03-29T00:28:34.229Z,3.40
2023-03-29T00:31:05.769Z,5.55
2023-03-29T00:33:32.203Z,6.10
2023-03-29T00:35:58.668Z,4.68
2023-03-29T00:38:25.086Z,4.03
2023-03-29T00:40:51.511Z,5.05
2023-03-29T00:43:17.873Z,3.85
2023-03-29T00:45:44.215Z,4.30
2023-03-29T00:48:13.368Z,5.43
2023-03-29T00:50:51.883Z,4.40
2023-03-29T00:53:35.494Z,4.82
2023-03-29T00:56:07.359Z,3.05
2023-03-29T00:58:51.119Z,6.90
2023-03-29T01:01:23.254Z,4.90
2023-03-29T01:03:54.050Z,4.68
2023-03-29T01:06:24.519Z,5.18
2023-03-29T01:08:56.493Z,3.47
2023-03-29T01:11:43.626Z,3.60
2023-03-29T01:14:25.543Z,5.95
2023-03-29T01:16:52.276Z,4.28
2023-03-29T01:19:22.817Z,3.55
2023-03-29T01:21:57.028Z,5.28
2023-03-29T01:24:50.172Z,5.25
2023-03-29T01:27:41.845Z,6.25
2023-03-29T01:30:14.211Z,4.22
2023-03-29T01:32:49.875Z,7.20
2023-03-29T01:35:24.997Z,6.38
2023-03-29T01:37:58.920Z,8.50
2023-03-29T01:40:25.392Z,7.03
2023-03-29T01:43:16.483Z,5.22
2023-03-29T01:45:48.457Z,3.72
2023-03-29T01:48:23.963Z,5.90
2023-03-29T01:51:09.265Z,5.05
2023-03-29T01:53:55.757Z,4.55
2023-03-29T01:56:26.116Z,6.25
2023-03-29T01:58:57.242Z,8.25
2023-03-29T02:01:28.441Z,4.55
2023-03-29T02:03:59.237Z,7.18
2023-03-29T02:06:27.798Z,8.57
2023-03-29T02:08:55.086Z,11.18
2023-03-29T02:11:24.731Z,6.57
2023-03-29T02:13:51.458Z,7.20
2023-03-29T02:16:19.056Z,4.10
2023-03-29T02:18:48.406Z,4.80
2023-03-29T02:21:49.345Z,4.90
2023-03-29T02:24:19.446Z,6.68
2023-03-29T02:26:46.706Z,5.25
2023-03-29T02:29:13.499Z,6.57
2023-03-29T02:31:49.956Z,6.43
2023-03-29T02:34:24.009Z,6.38
2023-03-29T02:36:57.907Z,6.88
2023-03-29T02:39:26.524Z,5.68
2023-03-29T02:41:54.443Z,7.13
2023-03-29T02:44:24.335Z,6.78
2023-03-29T02:46:56.501Z,6.03
2023-03-29T02:49:23.693Z,4.80
2023-03-29T02:51:53.902Z,5.80
2023-03-29T02:54:26.922Z,9.52
2023-03-29T02:56:58.929Z,8.88
2023-03-29T02:59:25.792Z,4.55
2023-03-29T03:01:52.978Z,6.07
2023-03-29T03:04:19.652Z,8.52
2023-03-29T03:06:46.722Z,5.78
2023-03-29T03:09:13.466Z,9.27
2023-03-29T03:11:40.154Z,7.07
2023-03-29T03:14:06.440Z,6.80
2023-03-29T03:16:34.004Z,5.00
2023-03-29T03:19:00.386Z,7.10
2023-03-29T03:21:26.911Z,7.68
2023-03-29T03:23:53.649Z,7.68
2023-03-29T03:26:20.326Z,5.03
2023-03-29T03:28:46.616Z,4.53
2023-03-29T03:31:12.976Z,6.70
2023-03-29T03:33:40.471Z,5.20
2023-03-29T03:36:08.993Z,5.68
2023-03-29T03:38:36.311Z,6.78
2023-03-29T03:41:03.161Z,7.22
2023-03-29T03:43:29.802Z,6.03
2023-03-29T03:45:56.121Z,6.47
2023-03-29T03:48:23.334Z,4.47
2023-03-29T03:50:51.281Z,8.43
2023-03-29T03:53:17.575Z,7.10
2023-03-29T03:55:48.572Z,6.28
2023-03-29T03:58:15.420Z,7.15
2023-03-29T04:00:42.139Z,7.90
2023-03-29T04:03:08.826Z,7.13
2023-03-29T04:05:39.293Z,7.40
2023-03-29T04:08:06.415Z,6.88
2023-03-29T04:10:33.563Z,8.18
2023-03-29T04:13:00.650Z,4.40
2023-03-29T04:15:27.016Z,6.65
2023-03-29T04:17:53.529Z,6.13
2023-03-29T04:20:20.059Z,8.18
2023-03-29T04:22:46.374Z,5.78
2023-03-29T04:25:12.838Z,7.65
2023-03-29T04:27:40.083Z,5.35
2023-03-29T04:30:07.161Z,6.43
2023-03-29T04:32:33.646Z,7.60
2023-03-29T04:35:00.008Z,8.27
2023-03-29T04:37:26.347Z,9.13
2023-03-29T04:39:52.683Z,11.10
2023-03-29T04:42:19.115Z,6.05
2023-03-29T04:44:45.708Z,9.27
2023-03-29T04:47:12.291Z,6.35
2023-03-29T04:49:39.760Z,8.80
2023-03-29T04:52:06.584Z,10.77
2023-03-29T04:54:32.913Z,7.13
2023-03-29T04:56:59.701Z,6.85
2023-03-29T04:59:26.192Z,5.82
2023-03-29T05:01:52.568Z,6.43
2023-03-29T05:04:19.120Z,7.30
2023-03-29T05:06:48.470Z,7.07
2023-03-29T05:09:14.876Z,5.93
2023-03-29T05:11:41.177Z,9.10
2023-03-29T05:14:07.524Z,10.45
2023-03-29T05:16:34.079Z,8.02
2023-03-29T05:19:11.449Z,7.30
2023-03-29T05:21:38.946Z,5.28
2023-03-29T05:24:05.672Z,7.45
2023-03-29T05:26:32.013Z,5.93
2023-03-29T05:28:58.443Z,7.07
2023-03-29T05:31:24.842Z,9.48
2023-03-29T05:33:51.466Z,8.68
2023-03-29T05:36:19.288Z,10.45
2023-03-29T05:38:46.611Z,7.22
2023-03-29T05:41:14.651Z,6.50
2023-03-29T05:43:41.874Z,6.68
2023-03-29T05:46:08.424Z,6.80
2023-03-29T05:48:35.625Z,6.43
2023-03-29T05:51:02.160Z,6.32
2023-03-29T05:53:29.049Z,9.32
2023-03-29T05:55:56.878Z,8.57
2023-03-29T05:58:23.354Z,9.20
2023-03-29T06:00:50.609Z,8.10
2023-03-29T06:03:22.297Z,11.00
2023-03-29T06:05:54.718Z,6.38
2023-03-29T06:08:21.181Z,9.10
2023-03-29T06:10:47.659Z,6.68
2023-03-29T06:13:14.298Z,8.93
2023-03-29T06:15:40.750Z,7.78
2023-03-29T06:18:07.313Z,11.30
2023-03-29T06:20:33.855Z,9.40
2023-03-29T06:23:00.208Z,7.63
2023-03-29T06:25:26.669Z,6.30
2023-03-29T06:27:53.210Z,9.90
2023-03-29T06:30:19.722Z,9.15
2023-03-29T06:32:46.140Z,7.75
2023-03-29T06:35:12.600Z,8.90
2023-03-29T06:37:39.046Z,11.35
2023-03-29T06:40:06.032Z,8.73
2023-03-29T06:42:32.669Z,9.00
2023-03-29T06:44:59.036Z,12.20
2023-03-29T06:47:25.735Z,7.55
2023-03-29T06:49:52.194Z,10.10
2023-03-29T06:52:18.572Z,10.75
2023-03-29T06:54:44.974Z,13.52
2023-03-29T06:57:11.424Z,12.00
2023-03-29T06:59:37.862Z,12.00
2023-03-29T07:02:04.334Z,10.93
2023-03-29T07:04:30.903Z,11.10
2023-03-29T07:06:57.525Z,9.23
2023-03-29T07:09:24.023Z,9.85
2023-03-29T07:11:50.441Z,10.68
2023-03-29T07:14:16.870Z,11.70
2023-03-29T07:16:43.435Z,10.90
2023-03-29T07:19:09.851Z,15.32
2023-03-29T07:21:37.873Z,13.77
2023-03-29T07:24:05.812Z,9.90
2023-03-29T07:26:32.868Z,11.60
2023-03-29T07:28:59.266Z,16.15
2023-03-29T07:31:25.703Z,11.95
2023-03-29T07:33:52.280Z,11.93
2023-03-29T07:36:18.730Z,13.32
2023-03-29T07:38:45.098Z,9.85
2023-03-29T07:41:11.839Z,10.55
2023-03-29T07:43:38.232Z,11.15
2023-03-29T07:46:06.138Z,10.65
2023-03-29T07:48:33.210Z,13.32
2023-03-29T07:50:59.824Z,11.82
2023-03-29T07:53:26.417Z,15.10
2023-03-29T07:55:52.784Z,13.07
2023-03-29T07:58:19.199Z,10.55
2023-03-29T08:00:45.707Z,12.82
2023-03-29T08:03:12.267Z,13.40
2023-03-29T08:05:41.750Z,16.08
2023-03-29T08:08:10.076Z,15.70
2023-03-29T08:10:38.013Z,13.57
2023-03-29T08:13:06.981Z,13.98
2023-03-29T08:15:34.668Z,17.02
2023-03-29T08:18:01.156Z,13.65
2023-03-29T08:20:27.533Z,19.05
2023-03-29T08:22:54.940Z,14.95
2023-03-29T08:25:21.296Z,15.18
2023-03-29T08:27:47.710Z,21.25
2023-03-29T08:30:14.902Z,18.25
2023-03-29T08:32:41.592Z,17.02
2023-03-29T08:35:08.905Z,14.90
2023-03-29T08:37:37.104Z,20.25
2023-03-29T08:40:04.310Z,17.30
2023-03-29T08:42:51.631Z,17.88
2023-03-29T08:45:39.706Z,21.00
2023-03-29T08:48:26.118Z,20.45
2023-03-29T08:51:08.594Z,17.13
2023-03-29T08:54:05.039Z,16.65
2023-03-29T08:56:35.883Z,23.63
2023-03-29T08:59:02.314Z,19.42
2023-03-29T09:01:34.378Z,19.10
2023-03-29T09:04:13.785Z,18.70
2023-03-29T09:06:40.329Z,18.15
2023-03-29T09:09:14.601Z,19.02
2023-03-29T09:11:52.254Z,19.65
2023-03-29T09:14:27.777Z,14.57
2023-03-29T09:17:15.414Z,21.80
2023-03-29T09:20:19.230Z,20.92
2023-03-29T09:22:57.939Z,16.50
2023-03-29T09:25:27.644Z,18.60
2023-03-29T09:28:05.403Z,19.75
2023-03-29T09:30:40.535Z,20.98
2023-03-29T09:33:26.361Z,19.27
2023-03-29T09:36:04.406Z,18.30
2023-03-29T09:38:31.509Z,15.40
2023-03-29T09:41:28.474Z,18.48
2023-03-29T09:43:57.877Z,20.17
2023-03-29T09:46:43.661Z,24.35
2023-03-29T09:49:34.284Z,22.85
2023-03-29T09:52:04.940Z,22.63
2023-03-29T09:54:32.110Z,17.48
2023-03-29T09:56:59.213Z,20.70
2023-03-29T09:59:25.808Z,19.55
2023-03-29T10:01:52.605Z,21.42
2023-03-29T10:04:19.147Z,18.83
2023-03-29T10:06:48.517Z,23.33
2023-03-29T10:09:19.602Z,21.50
2023-03-29T10:11:55.764Z,21.90
2023-03-29T10:14:57.723Z,23.60
2023-03-29T10:17:26.835Z,25.58
2023-03-29T10:20:04.205Z,19.67
2023-03-29T10:22:36.936Z,23.77
2023-03-29T10:25:09.381Z,24.15
2023-03-29T10:27:36.008Z,24.23
2023-03-29T10:30:10.448Z,25.08
2023-03-29T10:32:39.228Z,22.77
2023-03-29T10:35:27.674Z,21.98
2023-03-29T10:37:56.676Z,23.10
2023-03-29T10:40:30.223Z,22.52
2023-03-29T10:43:10.757Z,27.88
2023-03-29T10:45:38.854Z,21.15
2023-03-29T10:48:05.892Z,20.75
2023-03-29T10:50:34.959Z,24.40
2023-03-29T10:53:02.638Z,21.70
2023-03-29T10:55:42.388Z,24.98
2023-03-29T10:58:35.369Z,21.25
2023-03-29T11:01:14.291Z,20.80
2023-03-29T11:03:49.083Z,23.55
2023-03-29T11:06:42.109Z,21.77
2023-03-29T11:09:38.866Z,22.92
2023-03-29T11:12:17.191Z,21.25
2023-03-29T11:14:55.661Z,21.08
2023-03-29T11:17:35.428Z,24.58
2023-03-29T11:20:18.125Z,23.75
2023-03-29T11:23:08.216Z,21.48
2023-03-29T11:26:06.799Z,26.20
2023-03-29T11:28:52.143Z,21.58
2023-03-29T11:31:47.579Z,27.30
2023-03-29T11:34:17.020Z,21.80
2023-03-29T11:36:51.989Z,23.73
2023-03-29T11:39:27.188Z,19.48
2023-03-29T11:41:58.317Z,20.50
2023-03-29T11:44:30.250Z,17.23
2023-03-29T11:47:07.757Z,18.48
2023-03-29T11:49:41.092Z,16.13
2023-03-29T11:52:16.607Z,22.05
2023-03-29T11:55:14.194Z,23.65
2023-03-29T11:57:52.451Z,20.70
2023-03-29T12:00:25.071Z,26.38
2023-03-29T12:03:06.467Z,19.98
2023-03-29T12:05:40.655Z,28.17
2023-03-29T12:08:08.814Z,23.35
2023-03-29T12:10:38.878Z,27.85
2023-03-29T12:13:42.432Z,25.63
2023-03-29T12:16:16.039Z,25.30
2023-03-29T12:18:48.186Z,22.88
2023-03-29T12:21:19.652Z,21.50
2023-03-29T12:23:47.425Z,28.25
2023-03-29T12:26:35.479Z,25.27
2023-03-29T12:29:10.812Z,22.60
2023-03-29T12:31:51.109Z,24.15
2023-03-29T12:34:36.363Z,24.40
2023-03-29T12:37:41.612Z,23.70
2023-03-29T12:40:13.384Z,22.38
2023-03-29T12:42:47.831Z,21.58
2023-03-29T12:45:29.419Z,26.38
2023-03-29T12:47:56.320Z,22.40
2023-03-29T12:50:31.982Z,25.52
2023-03-29T12:53:05.152Z,23.70
2023-03-29T12:55:33.520Z,27.83
2023-03-29T12:58:06.786Z,24.88
2023-03-29T13:00:42.029Z,22.52
2023-03-29T13:03:40.599Z,26.50
2023-03-29T13:06:10.073Z,24.58
2023-03-29T13:08:40.819Z,26.85
2023-03-29T13:11:12.851Z,23.85
2023-03-29T13:13:41.642Z,21.88
2023-03-29T13:16:15.884Z,21.42
2023-03-29T13:18:55.019Z,19.70
2023-03-29T13:21:21.328Z,17.95
2023-03-29T13:23:50.454Z,21.13
2023-03-29T13:26:52.132Z,19.33
2023-03-29T13:30:00.450Z,17.98
2023-03-29T13:32:32.628Z,19.20
2023-03-29T13:35:12.089Z,20.98
2023-03-29T13:37:57.762Z,18.48
2023-03-29T13:40:30.017Z,22.02
2023-03-29T13:43:08.805Z,21.38
2023-03-29T13:45:36.493Z,19.80
2023-03-29T13:48:20.919Z,19.35
2023-03-29T13:51:04.899Z,20.75
2023-03-29T13:53:36.984Z,19.42
2023-03-29T13:56:06.122Z,18.60
2023-03-29T13:58:45.052Z,22.77
2023-03-29T14:01:38.983Z,17.92
2023-03-29T14:04:11.750Z,17.20
2023-03-29T14:06:39.758Z,19.25
2023-03-29T14:09:08.366Z,22.80
2023-03-29T14:11:35.490Z,19.15
2023-03-29T14:14:04.467Z,21.85
2023-03-29T14:16:40.284Z,20.05
2023-03-29T14:19:15.331Z,25.80
2023-03-29T14:21:43.255Z,24.88
2023-03-29T14:24:19.652Z,25.25
2023-03-29T14:26:47.676Z,22.38
2023-03-29T14:29:14.195Z,27.55
2023-03-29T14:31:42.486Z,22.98
2023-03-29T14:34:17.108Z,27.08
2023-03-29T14:36:49.328Z,28.17
2023-03-29T14:39:22.440Z,24.27
2023-03-29T14:41:52.675Z,28.67
2023-03-29T14:44:22.143Z,25.98
2023-03-29T14:46:48.722Z,27.35
2023-03-29T14:49:18.158Z,26.17
2023-03-29T14:51:46.291Z,28.13
2023-03-29T14:54:31.693Z,27.23
2023-03-29T14:56:59.209Z,26.40
2023-03-29T14:59:34.867Z,29.52
2023-03-29T15:02:01.522Z,24.70
2023-03-29T15:04:35.481Z,28.60
2023-03-29T15:07:04.331Z,21.77
2023-03-29T15:09:33.355Z,25.38
2023-03-29T15:12:02.094Z,27.35
2023-03-29T15:14:33.888Z,24.08
2023-03-29T15:17:05.924Z,23.63
2023-03-29T15:19:33.645Z,25.30
2023-03-29T15:22:04.767Z,25.63
2023-03-29T15:24:33.335Z,28.10
2023-03-29T15:27:02.244Z,27.42
2023-03-29T15:29:39.749Z,28.17
2023-03-29T15:32:07.075Z,30.05
2023-03-29T15:34:34.156Z,27.05
2023-03-29T15:37:01.574Z,21.83
2023-03-29T15:39:29.275Z,26.50
2023-03-29T15:41:57.181Z,20.98
2023-03-29T15:44:28.865Z,23.38
2023-03-29T15:46:55.987Z,24.77
2023-03-29T15:49:22.406Z,25.00
2023-03-29T15:51:48.809Z,21.98
2023-03-29T15:54:15.098Z,22.98
2023-03-29T15:56:49.520Z,22.00
2023-03-29T15:59:15.992Z,22.88
2023-03-29T16:01:42.450Z,22.23
2023-03-29T16:04:13.241Z,21.88
2023-03-29T16:06:40.136Z,21.27
2023-03-29T16:09:07.163Z,18.88
2023-03-29T16:11:34.259Z,23.42
2023-03-29T16:14:17.692Z,20.33
2023-03-29T16:16:44.011Z,20.15
2023-03-29T16:19:10.592Z,18.83
2023-03-29T16:21:37.080Z,16.15
2023-03-29T16:24:03.661Z,19.13
2023-03-29T16:26:31.110Z,15.98
2023-03-29T16:28:57.587Z,15.35
2023-03-29T16:31:26.138Z,13.57
2023-03-29T16:33:52.977Z,17.25
2023-03-29T16:36:19.481Z,16.35
2023-03-29T16:38:46.021Z,16.83
2023-03-29T16:41:16.882Z,14.38
2023-03-29T16:43:44.397Z,14.82
2023-03-29T16:46:11.485Z,16.45
2023-03-29T16:48:39.146Z,14.25
2023-03-29T16:51:06.020Z,13.05
2023-03-29T16:53:32.466Z,13.35
2023-03-29T16:55:59.380Z,12.77
2023-03-29T16:58:26.115Z,16.65
2023-03-29T17:00:53.174Z,11.95
2023-03-29T17:03:24.073Z,12.93
2023-03-29T17:05:52.097Z,15.95
2023-03-29T17:08:22.192Z,10.80
2023-03-29T17:10:52.895Z,9.75
2023-03-29T17:13:19.553Z,11.43
2023-03-29T17:15:46.739Z,11.35
2023-03-29T17:18:13.171Z,9.93
2023-03-29T17:20:39.631Z,10.30
2023-03-29T17:23:06.269Z,13.68
2023-03-29T17:25:32.804Z,9.60
2023-03-29T17:27:59.292Z,9.95
2023-03-29T17:30:28.588Z,9.43
2023-03-29T17:32:55.065Z,8.18
2023-03-29T17:35:21.535Z,10.75
2023-03-29T17:37:47.968Z,12.38
2023-03-29T17:40:15.084Z,10.52
2023-03-29T17:42:42.792Z,10.18
2023-03-29T17:45:10.728Z,9.05
2023-03-29T17:47:38.505Z,10.52
2023-03-29T17:50:06.826Z,8.93
2023-03-29T17:52:33.509Z,8.25
2023-03-29T17:55:00.125Z,7.53
2023-03-29T17:57:26.729Z,9.07
2023-03-29T17:59:53.288Z,9.00
2023-03-29T18:02:22.387Z,8.85
2023-03-29T18:04:49.938Z,12.02
2023-03-29T18:07:17.656Z,9.75
2023-03-29T18:09:44.129Z,9.60
2023-03-29T18:12:10.550Z,8.98
2023-03-29T18:14:37.051Z,10.70
2023-03-29T18:17:03.462Z,10.95
2023-03-29T18:19:29.915Z,18.92
2023-03-29T18:21:56.298Z,15.27
2023-03-29T18:24:22.719Z,12.27
2023-03-29T18:26:49.141Z,16.30
2023-03-29T18:29:15.559Z,10.55
2023-03-29T18:31:42.163Z,8.13
2023-03-29T18:34:08.759Z,8.45
2023-03-29T18:36:35.076Z,11.95
2023-03-29T18:39:02.674Z,6.72
2023-03-29T18:41:29.087Z,8.38
2023-03-29T18:43:55.490Z,10.20
2023-03-29T18:46:23.474Z,11.45
2023-03-29T18:48:49.816Z,8.80
2023-03-29T18:51:16.195Z,10.13
2023-03-29T18:53:42.504Z,14.32
2023-03-29T18:56:09.099Z,13.57
2023-03-29T18:58:35.905Z,12.95
2023-03-29T19:01:03.866Z,8.07
2023-03-29T19:03:31.567Z,8.85
2023-03-29T19:05:58.385Z,11.90
2023-03-29T19:08:25.884Z,9.13
2023-03-29T19:10:53.275Z,18.17
2023-03-29T19:13:19.680Z,12.05
2023-03-29T19:15:46.007Z,8.48
2023-03-29T19:18:12.613Z,10.88
2023-03-29T19:20:39.066Z,8.65
2023-03-29T19:23:05.462Z,8.05
2023-03-29T19:25:32.951Z,9.10
2023-03-29T19:27:59.884Z,10.23
2023-03-29T19:30:26.332Z,10.18
2023-03-29T19:32:52.896Z,10.23
2023-03-29T19:35:19.446Z,11.85
2023-03-29T19:37:48.778Z,11.25
2023-03-29T19:40:15.184Z,9.38
2023-03-29T19:42:41.934Z,8.90
2023-03-29T19:45:09.859Z,7.88
2023-03-29T19:47:36.409Z,8.48
2023-03-29T19:50:03.813Z,9.07
2023-03-29T19:52:30.775Z,15.43
2023-03-29T19:54:57.293Z,9.85
2023-03-29T19:57:23.884Z,12.20
2023-03-29T19:59:50.559Z,9.30
2023-03-29T20:02:17.158Z,9.80
2023-03-29T20:04:43.816Z,8.10
2023-03-29T20:07:11.298Z,8.90
2023-03-29T20:09:37.713Z,11.15
2023-03-29T20:12:04.667Z,10.48
2023-03-29T20:14:31.353Z,11.10
2023-03-29T20:16:57.832Z,9.32
2023-03-29T20:19:24.247Z,8.43
2023-03-29T20:21:54.193Z,9.50
2023-03-29T20:24:21.835Z,9.85
2023-03-29T20:26:48.371Z,8.73
2023-03-29T20:29:15.453Z,7.80
2023-03-29T20:31:42.021Z,10.82
2023-03-29T20:34:08.439Z,9.93
2023-03-29T20:36:34.886Z,12.68
2023-03-29T20:39:03.053Z,13.23
2023-03-29T20:41:29.704Z,11.95
2023-03-29T20:43:56.351Z,12.38
2023-03-29T20:46:23.030Z,11.52
2023-03-29T20:48:49.512Z,11.30
2023-03-29T20:51:15.953Z,12.07
2023-03-29T20:53:42.341Z,8.93
2023-03-29T20:56:08.716Z,11.60
2023-03-29T20:58:35.100Z,11.43
2023-03-29T21:01:01.862Z,9.40
2023-03-29T21:04:08.173Z,14.82
2023-03-29T21:06:36.716Z,11.38
2023-03-29T21:09:09.286Z,8.05
2023-03-29T21:11:35.651Z,15.15
2023-03-29T21:14:02.086Z,16.73
2023-03-29T21:16:28.490Z,20.67
2023-03-29T21:18:54.933Z,20.58
2023-03-29T21:21:21.323Z,24.20
2023-03-29T21:23:47.731Z,20.77
2023-03-29T21:26:14.312Z,17.00
2023-03-29T21:28:41.680Z,17.90
2023-03-29T21:31:08.497Z,20.92
2023-03-29T21:33:35.306Z,13.30
2023-03-29T21:36:01.961Z,14.93
2023-03-29T21:38:28.400Z,19.38
2023-03-29T21:40:54.783Z,17.50
2023-03-29T21:43:21.141Z,12.23
2023-03-29T21:45:50.766Z,15.60
2023-03-29T21:48:18.638Z,15.25
2023-03-29T21:50:48.967Z,14.68
2023-03-29T21:53:15.642Z,15.43
2023-03-29T21:55:42.052Z,14.45
2023-03-29T21:58:08.426Z,17.20
2023-03-29T22:00:34.915Z,16.88
2023-03-29T22:03:01.432Z,9.32
2023-03-29T22:05:28.096Z,14.95
2023-03-29T22:07:54.613Z,15.15
2023-03-29T22:10:20.910Z,10.02
2023-03-29T22:12:47.267Z,11.35
2023-03-29T22:15:13.579Z,12.48
2023-03-29T22:17:40.131Z,10.75
2023-03-29T22:20:07.031Z,14.00
2023-03-29T22:22:33.476Z,10.90
2023-03-29T22:24:59.871Z,10.70
2023-03-29T22:27:27.196Z,13.02
2023-03-29T22:29:53.555Z,11.90
2023-03-29T22:32:20.026Z,10.98
2023-03-29T22:34:46.568Z,11.98
2023-03-29T22:37:19.188Z,9.30
2023-03-29T22:39:46.665Z,10.07
2023-03-29T22:42:13.096Z,12.82
2023-03-29T22:44:39.528Z,9.35
2023-03-29T22:47:06.565Z,12.10
2023-03-29T22:49:33.227Z,9.38
2023-03-29T22:52:00.184Z,7.90
2023-03-29T22:54:28.042Z,9.50
2023-03-29T22:57:01.304Z,10.43
2023-03-29T22:59:27.826Z,9.40
2023-03-29T23:01:54.314Z,11.52
2023-03-29T23:04:20.871Z,8.10
2023-03-29T23:07:30.372Z,10.85
2023-03-29T23:09:57.072Z,9.13
2023-03-29T23:12:25.767Z,11.18
2023-03-29T23:15:12.725Z,10.05
2023-03-29T23:17:39.372Z,9.35
2023-03-29T23:20:06.880Z,8.23
2023-03-29T23:22:34.726Z,9.52
2023-03-29T23:25:04.832Z,7.00
2023-03-29T23:27:31.266Z,9.20
2023-03-29T23:29:57.576Z,7.35
2023-03-29T23:32:23.962Z,11.35
2023-03-29T23:34:50.399Z,9.60
2023-03-29T23:37:16.867Z,8.27
2023-03-29T23:39:43.255Z,9.52
2023-03-29T23:42:09.634Z,10.60
2023-03-29T23:44:36.008Z,9.43
2023-03-29T23:47:02.522Z,9.48
2023-03-29T23:49:29.183Z,12.88
2023-03-29T23:51:58.067Z,9.52
2023-03-29T23:54:24.362Z,9.65
2023-03-29T23:56:50.803Z,6.50
2023-03-29T23:59:17.212Z,10.32
